Terminal Aerodrome Forecast
Issued by NWS Northern Indiana

Home | Current Version | Previous Version | Graphics & Text | Print | Product List | Glossary On
Versions: 1 2 3 4 5 6 7 8 9 10 11 12 13
900
FTUS43 KIWX 221122
TAFFWA
TAF
KFWA 221122Z 2212/2312 20004KT 3SM BR BKN010
      TEMPO 2212/2214 1SM BR BKN006
     FM221600 21010KT P6SM BKN020
     FM222100 21009KT P6SM BKN035
     FM230600 23010KT 4SM BR BKN020=

USA.gov is the U.S. government's official web portal to all federal, state and local government web resources and services.